sensor_id;sensor_type;location;lat;lon;timestamp;P1;durP1;ratioP1;P2;durP2;ratioP2
49440;SDS011;35317;51.978;6.296;2024-01-11T00:03:11;29.98;;;10.63;;
49440;SDS011;35317;51.978;6.296;2024-01-11T00:08:12;34.13;;;11.30;;
49440;SDS011;35317;51.978;6.296;2024-01-11T00:13:13;27.95;;;10.35;;
49440;SDS011;35317;51.978;6.296;2024-01-11T00:18:14;31.63;;;11.18;;
49440;SDS011;35317;51.978;6.296;2024-01-11T00:23:15;28.17;;;11.10;;
49440;SDS011;35317;51.978;6.296;2024-01-11T00:28:15;32.70;;;11.02;;
49440;SDS011;35317;51.978;6.296;2024-01-11T00:33:16;30.70;;;10.95;;
49440;SDS011;35317;51.978;6.296;2024-01-11T00:38:17;34.10;;;10.35;;
49440;SDS011;35317;51.978;6.296;2024-01-11T00:43:18;26.08;;;9.10;;
49440;SDS011;35317;51.978;6.296;2024-01-11T00:48:18;27.10;;;10.05;;
49440;SDS011;35317;51.978;6.296;2024-01-11T00:53:19;19.75;;;8.75;;
49440;SDS011;35317;51.978;6.296;2024-01-11T00:58:20;22.85;;;9.27;;
49440;SDS011;35317;51.978;6.296;2024-01-11T01:03:21;21.10;;;8.05;;
49440;SDS011;35317;51.978;6.296;2024-01-11T01:08:22;23.98;;;8.95;;
49440;SDS011;35317;51.978;6.296;2024-01-11T01:13:23;25.42;;;8.65;;
49440;SDS011;35317;51.978;6.296;2024-01-11T01:18:24;29.95;;;9.48;;
49440;SDS011;35317;51.978;6.296;2024-01-11T01:23:24;23.50;;;7.75;;
49440;SDS011;35317;51.978;6.296;2024-01-11T01:28:25;21.63;;;8.35;;
49440;SDS011;35317;51.978;6.296;2024-01-11T01:33:26;22.65;;;8.07;;
49440;SDS011;35317;51.978;6.296;2024-01-11T01:38:26;27.83;;;9.23;;
49440;SDS011;35317;51.978;6.296;2024-01-11T01:43:27;28.55;;;9.40;;
49440;SDS011;35317;51.978;6.296;2024-01-11T01:48:28;24.77;;;9.27;;
49440;SDS011;35317;51.978;6.296;2024-01-11T01:53:29;24.98;;;8.50;;
49440;SDS011;35317;51.978;6.296;2024-01-11T01:58:30;23.65;;;8.10;;
49440;SDS011;35317;51.978;6.296;2024-01-11T02:03:31;22.52;;;7.95;;
49440;SDS011;35317;51.978;6.296;2024-01-11T02:08:35;21.25;;;7.88;;
49440;SDS011;35317;51.978;6.296;2024-01-11T02:13:37;24.95;;;8.93;;
49440;SDS011;35317;51.978;6.296;2024-01-11T02:18:37;25.02;;;8.60;;
49440;SDS011;35317;51.978;6.296;2024-01-11T02:23:41;23.80;;;8.25;;
49440;SDS011;35317;51.978;6.296;2024-01-11T02:28:47;22.02;;;8.32;;
49440;SDS011;35317;51.978;6.296;2024-01-11T02:33:48;30.95;;;8.00;;
49440;SDS011;35317;51.978;6.296;2024-01-11T02:38:49;20.77;;;8.00;;
49440;SDS011;35317;51.978;6.296;2024-01-11T02:43:51;22.85;;;7.97;;
49440;SDS011;35317;51.978;6.296;2024-01-11T02:48:53;26.08;;;7.75;;
49440;SDS011;35317;51.978;6.296;2024-01-11T02:53:54;24.27;;;7.95;;
49440;SDS011;35317;51.978;6.296;2024-01-11T02:58:55;19.35;;;7.57;;
49440;SDS011;35317;51.978;6.296;2024-01-11T03:03:55;19.55;;;7.32;;
49440;SDS011;35317;51.978;6.296;2024-01-11T03:08:57;16.90;;;6.80;;
49440;SDS011;35317;51.978;6.296;2024-01-11T03:13:58;27.27;;;7.82;;
49440;SDS011;35317;51.978;6.296;2024-01-11T03:18:58;20.98;;;8.35;;
49440;SDS011;35317;51.978;6.296;2024-01-11T03:23:59;33.28;;;8.60;;
49440;SDS011;35317;51.978;6.296;2024-01-11T03:29:00;27.33;;;9.10;;
49440;SDS011;35317;51.978;6.296;2024-01-11T03:34:01;23.23;;;8.52;;
49440;SDS011;35317;51.978;6.296;2024-01-11T03:39:02;27.08;;;8.25;;
49440;SDS011;35317;51.978;6.296;2024-01-11T03:44:03;22.52;;;7.90;;
49440;SDS011;35317;51.978;6.296;2024-01-11T03:49:04;19.52;;;8.07;;
49440;SDS011;35317;51.978;6.296;2024-01-11T03:54:05;24.65;;;8.23;;
49440;SDS011;35317;51.978;6.296;2024-01-11T03:59:06;19.85;;;7.25;;
49440;SDS011;35317;51.978;6.296;2024-01-11T04:04:06;20.83;;;8.10;;
49440;SDS011;35317;51.978;6.296;2024-01-11T04:09:07;23.80;;;7.93;;
49440;SDS011;35317;51.978;6.296;2024-01-11T04:14:08;20.48;;;7.55;;
49440;SDS011;35317;51.978;6.296;2024-01-11T04:19:09;22.05;;;8.02;;
49440;SDS011;35317;51.978;6.296;2024-01-11T04:24:11;21.50;;;7.85;;
49440;SDS011;35317;51.978;6.296;2024-01-11T04:29:11;23.98;;;9.15;;
49440;SDS011;35317;51.978;6.296;2024-01-11T04:34:12;25.80;;;8.30;;
49440;SDS011;35317;51.978;6.296;2024-01-11T04:39:13;27.33;;;9.23;;
49440;SDS011;35317;51.978;6.296;2024-01-11T04:44:14;23.23;;;9.27;;
49440;SDS011;35317;51.978;6.296;2024-01-11T04:49:15;24.25;;;8.68;;
49440;SDS011;35317;51.978;6.296;2024-01-11T04:54:17;23.17;;;9.27;;
49440;SDS011;35317;51.978;6.296;2024-01-11T04:59:17;26.20;;;8.77;;
49440;SDS011;35317;51.978;6.296;2024-01-11T05:04:18;27.80;;;8.18;;
49440;SDS011;35317;51.978;6.296;2024-01-11T05:09:19;23.52;;;7.40;;
49440;SDS011;35317;51.978;6.296;2024-01-11T05:14:19;25.73;;;9.07;;
49440;SDS011;35317;51.978;6.296;2024-01-11T05:19:20;26.08;;;8.15;;
49440;SDS011;35317;51.978;6.296;2024-01-11T05:24:21;24.48;;;8.55;;
49440;SDS011;35317;51.978;6.296;2024-01-11T05:29:22;23.83;;;8.45;;
49440;SDS011;35317;51.978;6.296;2024-01-11T05:34:23;21.80;;;8.05;;
49440;SDS011;35317;51.978;6.296;2024-01-11T05:39:24;27.58;;;9.52;;
49440;SDS011;35317;51.978;6.296;2024-01-11T05:44:25;22.35;;;9.07;;
49440;SDS011;35317;51.978;6.296;2024-01-11T05:49:25;20.42;;;8.32;;
49440;SDS011;35317;51.978;6.296;2024-01-11T05:54:26;21.67;;;8.15;;
49440;SDS011;35317;51.978;6.296;2024-01-11T05:59:28;22.75;;;8.60;;
49440;SDS011;35317;51.978;6.296;2024-01-11T06:04:29;22.58;;;9.05;;
49440;SDS011;35317;51.978;6.296;2024-01-11T06:09:32;25.83;;;7.93;;
49440;SDS011;35317;51.978;6.296;2024-01-11T06:14:33;27.48;;;8.98;;
49440;SDS011;35317;51.978;6.296;2024-01-11T06:19:33;26.05;;;8.57;;
49440;SDS011;35317;51.978;6.296;2024-01-11T06:24:34;25.90;;;9.02;;
49440;SDS011;35317;51.978;6.296;2024-01-11T06:29:35;24.75;;;8.50;;
49440;SDS011;35317;51.978;6.296;2024-01-11T06:34:36;22.00;;;8.48;;
49440;SDS011;35317;51.978;6.296;2024-01-11T06:39:37;24.10;;;9.05;;
49440;SDS011;35317;51.978;6.296;2024-01-11T06:44:37;30.50;;;9.55;;
49440;SDS011;35317;51.978;6.296;2024-01-11T06:49:38;26.25;;;9.05;;
49440;SDS011;35317;51.978;6.296;2024-01-11T06:54:40;29.73;;;10.32;;
49440;SDS011;35317;51.978;6.296;2024-01-11T06:59:40;29.83;;;10.30;;
49440;SDS011;35317;51.978;6.296;2024-01-11T07:04:44;33.25;;;11.23;;
49440;SDS011;35317;51.978;6.296;2024-01-11T07:09:45;31.63;;;11.35;;
49440;SDS011;35317;51.978;6.296;2024-01-11T07:14:46;31.67;;;11.23;;
49440;SDS011;35317;51.978;6.296;2024-01-11T07:19:47;29.90;;;9.60;;
49440;SDS011;35317;51.978;6.296;2024-01-11T07:24:48;33.15;;;10.95;;
49440;SDS011;35317;51.978;6.296;2024-01-11T07:29:48;28.33;;;10.98;;
49440;SDS011;35317;51.978;6.296;2024-01-11T07:34:49;27.30;;;10.73;;
49440;SDS011;35317;51.978;6.296;2024-01-11T07:39:50;33.17;;;11.50;;
49440;SDS011;35317;51.978;6.296;2024-01-11T07:44:51;26.95;;;11.70;;
49440;SDS011;35317;51.978;6.296;2024-01-11T07:49:52;32.63;;;11.93;;
49440;SDS011;35317;51.978;6.296;2024-01-11T07:54:52;36.92;;;11.70;;
49440;SDS011;35317;51.978;6.296;2024-01-11T07:59:54;37.33;;;12.68;;
49440;SDS011;35317;51.978;6.296;2024-01-11T08:04:55;34.88;;;11.95;;
49440;SDS011;35317;51.978;6.296;2024-01-11T08:09:56;34.17;;;11.82;;
49440;SDS011;35317;51.978;6.296;2024-01-11T08:14:57;35.30;;;11.82;;
49440;SDS011;35317;51.978;6.296;2024-01-11T08:19:58;30.20;;;11.73;;
49440;SDS011;35317;51.978;6.296;2024-01-11T08:24:58;36.13;;;12.18;;
49440;SDS011;35317;51.978;6.296;2024-01-11T08:29:59;37.72;;;12.63;;
49440;SDS011;35317;51.978;6.296;2024-01-11T08:35:00;34.72;;;12.05;;
49440;SDS011;35317;51.978;6.296;2024-01-11T08:40:01;34.78;;;12.40;;
49440;SDS011;35317;51.978;6.296;2024-01-11T08:45:15;35.28;;;13.52;;
49440;SDS011;35317;51.978;6.296;2024-01-11T08:50:28;33.22;;;12.48;;
49440;SDS011;35317;51.978;6.296;2024-01-11T09:01:25;36.22;;;14.18;;
49440;SDS011;35317;51.978;6.296;2024-01-11T09:06:28;39.95;;;14.50;;
49440;SDS011;35317;51.978;6.296;2024-01-11T09:11:29;42.17;;;13.43;;
49440;SDS011;35317;51.978;6.296;2024-01-11T09:16:30;37.30;;;12.65;;
49440;SDS011;35317;51.978;6.296;2024-01-11T09:21:31;36.90;;;13.80;;
49440;SDS011;35317;51.978;6.296;2024-01-11T09:26:35;40.53;;;14.90;;
49440;SDS011;35317;51.978;6.296;2024-01-11T09:37:02;39.53;;;15.25;;
49440;SDS011;35317;51.978;6.296;2024-01-11T09:59:03;37.97;;;14.45;;
49440;SDS011;35317;51.978;6.296;2024-01-11T10:04:07;33.70;;;14.20;;
49440;SDS011;35317;51.978;6.296;2024-01-11T10:09:10;39.85;;;15.20;;
49440;SDS011;35317;51.978;6.296;2024-01-11T10:14:13;37.42;;;13.65;;
49440;SDS011;35317;51.978;6.296;2024-01-11T10:19:18;43.13;;;15.00;;
49440;SDS011;35317;51.978;6.296;2024-01-11T10:24:21;37.50;;;14.20;;
49440;SDS011;35317;51.978;6.296;2024-01-11T10:29:32;40.10;;;13.68;;
49440;SDS011;35317;51.978;6.296;2024-01-11T10:34:37;33.75;;;13.80;;
49440;SDS011;35317;51.978;6.296;2024-01-11T10:39:41;33.40;;;12.38;;
49440;SDS011;35317;51.978;6.296;2024-01-11T10:44:42;32.53;;;12.77;;
49440;SDS011;35317;51.978;6.296;2024-01-11T10:49:47;39.55;;;14.05;;
49440;SDS011;35317;51.978;6.296;2024-01-11T10:54:52;37.25;;;14.43;;
49440;SDS011;35317;51.978;6.296;2024-01-11T10:59:53;33.58;;;13.23;;
49440;SDS011;35317;51.978;6.296;2024-01-11T11:04:55;26.00;;;8.48;;
49440;SDS011;35317;51.978;6.296;2024-01-11T11:09:57;20.15;;;7.18;;
49440;SDS011;35317;51.978;6.296;2024-01-11T11:14:59;20.45;;;6.30;;
49440;SDS011;35317;51.978;6.296;2024-01-11T11:20:05;20.33;;;7.40;;
49440;SDS011;35317;51.978;6.296;2024-01-11T11:25:08;18.50;;;6.60;;
49440;SDS011;35317;51.978;6.296;2024-01-11T11:30:10;18.88;;;6.78;;
49440;SDS011;35317;51.978;6.296;2024-01-11T11:35:11;20.88;;;6.55;;
49440;SDS011;35317;51.978;6.296;2024-01-11T11:40:12;18.25;;;6.32;;
49440;SDS011;35317;51.978;6.296;2024-01-11T11:45:23;21.88;;;7.38;;
49440;SDS011;35317;51.978;6.296;2024-01-11T11:50:29;21.42;;;7.03;;
49440;SDS011;35317;51.978;6.296;2024-01-11T12:01:26;20.88;;;7.45;;
49440;SDS011;35317;51.978;6.296;2024-01-11T12:06:27;20.80;;;6.85;;
49440;SDS011;35317;51.978;6.296;2024-01-11T12:11:29;24.20;;;7.55;;
49440;SDS011;35317;51.978;6.296;2024-01-11T12:16:34;23.17;;;7.75;;
49440;SDS011;35317;51.978;6.296;2024-01-11T12:21:35;24.02;;;7.75;;
49440;SDS011;35317;51.978;6.296;2024-01-11T12:26:36;29.55;;;8.07;;
49440;SDS011;35317;51.978;6.296;2024-01-11T12:31:41;31.77;;;8.27;;
49440;SDS011;35317;51.978;6.296;2024-01-11T12:37:05;22.63;;;7.57;;
49440;SDS011;35317;51.978;6.296;2024-01-11T12:42:06;21.98;;;7.72;;
49440;SDS011;35317;51.978;6.296;2024-01-11T12:47:07;29.20;;;9.32;;
49440;SDS011;35317;51.978;6.296;2024-01-11T12:52:14;29.73;;;8.38;;
49440;SDS011;35317;51.978;6.296;2024-01-11T12:57:19;26.25;;;8.20;;
49440;SDS011;35317;51.978;6.296;2024-01-11T13:02:20;29.17;;;8.85;;
49440;SDS011;35317;51.978;6.296;2024-01-11T13:07:21;32.33;;;9.20;;
49440;SDS011;35317;51.978;6.296;2024-01-11T13:12:23;32.95;;;8.98;;
49440;SDS011;35317;51.978;6.296;2024-01-11T13:17:24;33.75;;;8.82;;
49440;SDS011;35317;51.978;6.296;2024-01-11T13:22:25;30.85;;;9.02;;
49440;SDS011;35317;51.978;6.296;2024-01-11T13:27:27;30.45;;;9.75;;
49440;SDS011;35317;51.978;6.296;2024-01-11T13:32:27;28.00;;;8.85;;
49440;SDS011;35317;51.978;6.296;2024-01-11T13:43:49;33.00;;;9.63;;
49440;SDS011;35317;51.978;6.296;2024-01-11T13:48:50;33.15;;;10.27;;
49440;SDS011;35317;51.978;6.296;2024-01-11T13:53:54;31.30;;;9.85;;
49440;SDS011;35317;51.978;6.296;2024-01-11T14:04:18;35.03;;;10.68;;
49440;SDS011;35317;51.978;6.296;2024-01-11T14:09:40;44.03;;;13.10;;
49440;SDS011;35317;51.978;6.296;2024-01-11T14:20:57;41.92;;;13.35;;
49440;SDS011;35317;51.978;6.296;2024-01-11T14:25:58;31.45;;;9.98;;
49440;SDS011;35317;51.978;6.296;2024-01-11T14:30:59;26.35;;;10.13;;
49440;SDS011;35317;51.978;6.296;2024-01-11T14:35:59;35.53;;;11.43;;
49440;SDS011;35317;51.978;6.296;2024-01-11T14:41:00;33.22;;;10.35;;
49440;SDS011;35317;51.978;6.296;2024-01-11T14:46:02;34.58;;;11.00;;
49440;SDS011;35317;51.978;6.296;2024-01-11T14:51:04;32.50;;;10.85;;
49440;SDS011;35317;51.978;6.296;2024-01-11T14:56:07;35.58;;;10.52;;
49440;SDS011;35317;51.978;6.296;2024-01-11T15:01:08;41.47;;;12.32;;
49440;SDS011;35317;51.978;6.296;2024-01-11T15:06:09;35.13;;;11.10;;
49440;SDS011;35317;51.978;6.296;2024-01-11T15:11:10;32.70;;;10.55;;
49440;SDS011;35317;51.978;6.296;2024-01-11T15:16:11;31.05;;;9.90;;
49440;SDS011;35317;51.978;6.296;2024-01-11T15:21:11;33.45;;;10.23;;
49440;SDS011;35317;51.978;6.296;2024-01-11T15:26:12;32.28;;;8.63;;
49440;SDS011;35317;51.978;6.296;2024-01-11T15:31:13;30.65;;;9.52;;
49440;SDS011;35317;51.978;6.296;2024-01-11T15:43:23;36.70;;;10.48;;
49440;SDS011;35317;51.978;6.296;2024-01-11T15:48:26;42.33;;;14.57;;
49440;SDS011;35317;51.978;6.296;2024-01-11T15:53:27;38.92;;;12.50;;
49440;SDS011;35317;51.978;6.296;2024-01-11T15:58:27;27.65;;;8.55;;
49440;SDS011;35317;51.978;6.296;2024-01-11T16:03:29;32.85;;;9.15;;
49440;SDS011;35317;51.978;6.296;2024-01-11T16:08:29;31.67;;;9.93;;
49440;SDS011;35317;51.978;6.296;2024-01-11T16:13:30;32.20;;;10.18;;
49440;SDS011;35317;51.978;6.296;2024-01-11T16:18:34;36.10;;;12.20;;
49440;SDS011;35317;51.978;6.296;2024-01-11T16:23:35;33.70;;;10.15;;
49440;SDS011;35317;51.978;6.296;2024-01-11T16:28:36;38.13;;;12.32;;
49440;SDS011;35317;51.978;6.296;2024-01-11T16:33:37;36.83;;;10.75;;
49440;SDS011;35317;51.978;6.296;2024-01-11T16:38:38;36.63;;;12.25;;
49440;SDS011;35317;51.978;6.296;2024-01-11T16:43:39;34.42;;;11.10;;
49440;SDS011;35317;51.978;6.296;2024-01-11T16:48:40;35.78;;;12.18;;
49440;SDS011;35317;51.978;6.296;2024-01-11T16:53:41;38.28;;;11.63;;
49440;SDS011;35317;51.978;6.296;2024-01-11T16:58:46;41.08;;;13.27;;
49440;SDS011;35317;51.978;6.296;2024-01-11T17:03:46;48.63;;;13.52;;
49440;SDS011;35317;51.978;6.296;2024-01-11T17:08:48;43.15;;;12.85;;
49440;SDS011;35317;51.978;6.296;2024-01-11T17:13:49;39.85;;;12.85;;
49440;SDS011;35317;51.978;6.296;2024-01-11T17:18:49;49.67;;;13.25;;
49440;SDS011;35317;51.978;6.296;2024-01-11T17:23:50;40.28;;;12.50;;
49440;SDS011;35317;51.978;6.296;2024-01-11T17:28:51;45.00;;;12.57;;
49440;SDS011;35317;51.978;6.296;2024-01-11T17:33:52;41.72;;;12.30;;
49440;SDS011;35317;51.978;6.296;2024-01-11T17:38:53;44.50;;;13.57;;
49440;SDS011;35317;51.978;6.296;2024-01-11T17:43:54;42.17;;;12.98;;
49440;SDS011;35317;51.978;6.296;2024-01-11T17:48:55;41.85;;;12.73;;
49440;SDS011;35317;51.978;6.296;2024-01-11T17:53:56;38.15;;;12.13;;
49440;SDS011;35317;51.978;6.296;2024-01-11T17:58:57;46.15;;;11.82;;
49440;SDS011;35317;51.978;6.296;2024-01-11T18:03:59;49.05;;;12.32;;
49440;SDS011;35317;51.978;6.296;2024-01-11T18:09:01;38.17;;;11.63;;
49440;SDS011;35317;51.978;6.296;2024-01-11T18:14:05;41.75;;;12.40;;
49440;SDS011;35317;51.978;6.296;2024-01-11T18:19:11;41.42;;;13.10;;
49440;SDS011;35317;51.978;6.296;2024-01-11T18:24:13;52.33;;;13.70;;
49440;SDS011;35317;51.978;6.296;2024-01-11T18:29:14;45.25;;;14.68;;
49440;SDS011;35317;51.978;6.296;2024-01-11T18:34:15;40.75;;;13.50;;
49440;SDS011;35317;51.978;6.296;2024-01-11T18:39:16;49.80;;;16.67;;
49440;SDS011;35317;51.978;6.296;2024-01-11T18:44:16;48.63;;;15.52;;
49440;SDS011;35317;51.978;6.296;2024-01-11T18:49:17;56.63;;;15.55;;
49440;SDS011;35317;51.978;6.296;2024-01-11T18:54:19;55.65;;;16.05;;
49440;SDS011;35317;51.978;6.296;2024-01-11T18:59:20;52.08;;;15.88;;
49440;SDS011;35317;51.978;6.296;2024-01-11T19:04:21;60.38;;;17.58;;
49440;SDS011;35317;51.978;6.296;2024-01-11T19:09:22;57.53;;;16.50;;
49440;SDS011;35317;51.978;6.296;2024-01-11T19:14:26;66.93;;;19.00;;
49440;SDS011;35317;51.978;6.296;2024-01-11T19:19:27;61.20;;;17.02;;
49440;SDS011;35317;51.978;6.296;2024-01-11T19:24:28;71.75;;;18.65;;
49440;SDS011;35317;51.978;6.296;2024-01-11T19:29:28;68.00;;;19.33;;
49440;SDS011;35317;51.978;6.296;2024-01-11T19:34:31;82.57;;;18.48;;
49440;SDS011;35317;51.978;6.296;2024-01-11T19:39:32;62.42;;;17.35;;
49440;SDS011;35317;51.978;6.296;2024-01-11T19:44:32;55.47;;;16.52;;
49440;SDS011;35317;51.978;6.296;2024-01-11T19:49:33;62.25;;;15.85;;
49440;SDS011;35317;51.978;6.296;2024-01-11T19:54:34;63.97;;;17.10;;
49440;SDS011;35317;51.978;6.296;2024-01-11T19:59:35;57.10;;;16.63;;
49440;SDS011;35317;51.978;6.296;2024-01-11T20:04:36;60.97;;;15.48;;
49440;SDS011;35317;51.978;6.296;2024-01-11T20:09:36;58.80;;;15.90;;
49440;SDS011;35317;51.978;6.296;2024-01-11T20:14:37;62.30;;;16.50;;
49440;SDS011;35317;51.978;6.296;2024-01-11T20:19:39;61.40;;;16.02;;
49440;SDS011;35317;51.978;6.296;2024-01-11T20:24:40;59.28;;;15.25;;
49440;SDS011;35317;51.978;6.296;2024-01-11T20:29:41;58.42;;;15.18;;
49440;SDS011;35317;51.978;6.296;2024-01-11T20:34:42;59.83;;;17.13;;
49440;SDS011;35317;51.978;6.296;2024-01-11T20:39:42;59.13;;;15.90;;
49440;SDS011;35317;51.978;6.296;2024-01-11T20:44:43;66.35;;;16.92;;
49440;SDS011;35317;51.978;6.296;2024-01-11T20:49:44;60.55;;;16.67;;
49440;SDS011;35317;51.978;6.296;2024-01-11T20:54:45;66.20;;;16.67;;
49440;SDS011;35317;51.978;6.296;2024-01-11T20:59:46;62.45;;;17.05;;
49440;SDS011;35317;51.978;6.296;2024-01-11T21:04:47;64.05;;;17.95;;
49440;SDS011;35317;51.978;6.296;2024-01-11T21:09:49;65.13;;;18.52;;
49440;SDS011;35317;51.978;6.296;2024-01-11T21:14:49;60.42;;;16.95;;
49440;SDS011;35317;51.978;6.296;2024-01-11T21:19:50;54.50;;;16.23;;
49440;SDS011;35317;51.978;6.296;2024-01-11T21:24:51;57.78;;;16.00;;
49440;SDS011;35317;51.978;6.296;2024-01-11T21:29:52;65.05;;;16.98;;
49440;SDS011;35317;51.978;6.296;2024-01-11T21:34:53;57.92;;;16.25;;
49440;SDS011;35317;51.978;6.296;2024-01-11T21:39:53;64.35;;;15.85;;
49440;SDS011;35317;51.978;6.296;2024-01-11T21:44:57;65.35;;;17.83;;
49440;SDS011;35317;51.978;6.296;2024-01-11T21:49:58;77.40;;;17.48;;
49440;SDS011;35317;51.978;6.296;2024-01-11T21:54:59;58.30;;;16.90;;
49440;SDS011;35317;51.978;6.296;2024-01-11T22:00:00;62.88;;;17.83;;
49440;SDS011;35317;51.978;6.296;2024-01-11T22:05:01;52.30;;;15.90;;
49440;SDS011;35317;51.978;6.296;2024-01-11T22:10:02;65.05;;;17.35;;
49440;SDS011;35317;51.978;6.296;2024-01-11T22:15:03;54.67;;;16.45;;
49440;SDS011;35317;51.978;6.296;2024-01-11T22:20:04;60.83;;;16.23;;
49440;SDS011;35317;51.978;6.296;2024-01-11T22:25:06;60.63;;;16.98;;
49440;SDS011;35317;51.978;6.296;2024-01-11T22:30:07;66.18;;;17.25;;
49440;SDS011;35317;51.978;6.296;2024-01-11T22:35:09;62.47;;;17.10;;
49440;SDS011;35317;51.978;6.296;2024-01-11T22:40:10;66.00;;;16.30;;
49440;SDS011;35317;51.978;6.296;2024-01-11T22:45:12;59.17;;;16.45;;
49440;SDS011;35317;51.978;6.296;2024-01-11T22:50:13;58.17;;;15.30;;
49440;SDS011;35317;51.978;6.296;2024-01-11T22:55:14;61.25;;;16.52;;
49440;SDS011;35317;51.978;6.296;2024-01-11T23:00:15;56.40;;;15.52;;
49440;SDS011;35317;51.978;6.296;2024-01-11T23:05:23;61.03;;;15.73;;
49440;SDS011;35317;51.978;6.296;2024-01-11T23:10:23;44.17;;;15.48;;
49440;SDS011;35317;51.978;6.296;2024-01-11T23:15:24;58.60;;;16.20;;
49440;SDS011;35317;51.978;6.296;2024-01-11T23:20:25;54.28;;;16.02;;
49440;SDS011;35317;51.978;6.296;2024-01-11T23:25:26;58.50;;;15.43;;
49440;SDS011;35317;51.978;6.296;2024-01-11T23:30:32;52.15;;;15.55;;
49440;SDS011;35317;51.978;6.296;2024-01-11T23:35:34;53.95;;;15.18;;
49440;SDS011;35317;51.978;6.296;2024-01-11T23:40:35;57.83;;;16.50;;
49440;SDS011;35317;51.978;6.296;2024-01-11T23:45:35;58.33;;;17.38;;
49440;SDS011;35317;51.978;6.296;2024-01-11T23:50:36;58.30;;;15.98;;
49440;SDS011;35317;51.978;6.296;2024-01-11T23:55:37;50.00;;;15.60;;
